sensor_id;sensor_type;location;lat;lon;timestamp;pressure;altitude;pressure_sealevel;temperature;humidity
37878;BME280;23715;53.652;8.516;2023-07-24T00:03:57;100914.41;;;19.67;100.00
37878;BME280;23715;53.652;8.516;2023-07-24T00:08:58;100930.12;;;19.65;100.00
37878;BME280;23715;53.652;8.516;2023-07-24T00:13:58;100939.91;;;19.59;100.00
37878;BME280;23715;53.652;8.516;2023-07-24T00:18:58;100955.31;;;19.56;100.00
37878;BME280;23715;53.652;8.516;2023-07-24T00:23:59;100973.65;;;19.62;100.00
37878;BME280;23715;53.652;8.516;2023-07-24T00:29:00;100987.84;;;19.58;100.00
37878;BME280;23715;53.652;8.516;2023-07-24T00:34:00;100985.50;;;19.55;100.00
37878;BME280;23715;53.652;8.516;2023-07-24T00:39:00;100976.84;;;19.51;100.00
37878;BME280;23715;53.652;8.516;2023-07-24T00:44:02;100972.73;;;19.36;100.00
37878;BME280;23715;53.652;8.516;2023-07-24T00:49:04;100997.53;;;19.45;100.00
37878;BME280;23715;53.652;8.516;2023-07-24T00:54:08;101025.42;;;19.51;100.00
37878;BME280;23715;53.652;8.516;2023-07-24T00:59:08;101020.48;;;19.51;100.00
37878;BME280;23715;53.652;8.516;2023-07-24T01:04:09;101029.94;;;19.59;100.00
37878;BME280;23715;53.652;8.516;2023-07-24T01:09:09;101031.39;;;19.51;100.00
37878;BME280;23715;53.652;8.516;2023-07-24T01:14:29;101042.01;;;19.46;100.00
37878;BME280;23715;53.652;8.516;2023-07-24T01:19:48;101056.39;;;19.40;100.00
37878;BME280;23715;53.652;8.516;2023-07-24T01:25:18;101084.02;;;19.37;100.00
37878;BME280;23715;53.652;8.516;2023-07-24T01:30:17;101075.92;;;19.47;100.00
37878;BME280;23715;53.652;8.516;2023-07-24T01:35:19;101069.45;;;19.63;100.00
37878;BME280;23715;53.652;8.516;2023-07-24T01:40:19;101036.21;;;19.64;100.00
37878;BME280;23715;53.652;8.516;2023-07-24T01:45:21;100986.23;;;19.63;100.00
37878;BME280;23715;53.652;8.516;2023-07-24T01:50:21;100956.98;;;19.57;100.00
37878;BME280;23715;53.652;8.516;2023-07-24T01:55:21;100928.58;;;19.66;100.00
37878;BME280;23715;53.652;8.516;2023-07-24T02:00:21;100883.68;;;19.58;100.00
37878;BME280;23715;53.652;8.516;2023-07-24T02:05:23;100847.33;;;19.62;100.00
37878;BME280;23715;53.652;8.516;2023-07-24T02:10:23;100790.78;;;19.56;100.00
37878;BME280;23715;53.652;8.516;2023-07-24T02:15:23;100739.42;;;19.59;100.00
37878;BME280;23715;53.652;8.516;2023-07-24T02:20:23;100706.30;;;19.62;100.00
37878;BME280;23715;53.652;8.516;2023-07-24T02:25:24;100665.84;;;19.77;100.00
37878;BME280;23715;53.652;8.516;2023-07-24T02:30:24;100601.36;;;19.58;100.00
37878;BME280;23715;53.652;8.516;2023-07-24T02:35:24;100568.17;;;19.55;100.00
37878;BME280;23715;53.652;8.516;2023-07-24T02:40:24;100523.08;;;19.41;100.00
37878;BME280;23715;53.652;8.516;2023-07-24T02:45:28;100501.73;;;19.34;100.00
37878;BME280;23715;53.652;8.516;2023-07-24T02:50:29;100484.63;;;19.47;100.00
37878;BME280;23715;53.652;8.516;2023-07-24T02:55:29;100465.90;;;19.55;100.00
37878;BME280;23715;53.652;8.516;2023-07-24T03:00:31;100443.99;;;19.59;100.00
37878;BME280;23715;53.652;8.516;2023-07-24T03:05:33;100433.75;;;19.50;100.00
37878;BME280;23715;53.652;8.516;2023-07-24T03:10:34;100432.44;;;19.57;100.00
37878;BME280;23715;53.652;8.516;2023-07-24T03:15:34;100410.81;;;19.55;100.00
37878;BME280;23715;53.652;8.516;2023-07-24T03:20:34;100416.19;;;19.59;100.00
37878;BME280;23715;53.652;8.516;2023-07-24T03:25:35;100423.00;;;19.59;100.00
37878;BME280;23715;53.652;8.516;2023-07-24T03:30:34;100429.45;;;19.69;100.00
37878;BME280;23715;53.652;8.516;2023-07-24T03:35:35;100449.47;;;19.76;100.00
37878;BME280;23715;53.652;8.516;2023-07-24T03:40:35;100444.98;;;19.68;100.00
37878;BME280;23715;53.652;8.516;2023-07-24T03:45:35;100443.56;;;19.73;100.00
37878;BME280;23715;53.652;8.516;2023-07-24T03:50:36;100449.91;;;19.69;100.00
37878;BME280;23715;53.652;8.516;2023-07-24T03:55:36;100450.45;;;19.68;100.00
37878;BME280;23715;53.652;8.516;2023-07-24T04:00:37;100471.82;;;19.76;100.00
37878;BME280;23715;53.652;8.516;2023-07-24T04:05:36;100457.59;;;19.69;100.00
37878;BME280;23715;53.652;8.516;2023-07-24T04:10:36;100456.48;;;19.75;100.00
37878;BME280;23715;53.652;8.516;2023-07-24T04:15:36;100452.74;;;19.82;100.00
37878;BME280;23715;53.652;8.516;2023-07-24T04:20:38;100428.47;;;19.77;100.00
37878;BME280;23715;53.652;8.516;2023-07-24T04:25:38;100428.47;;;19.77;100.00
37878;BME280;23715;53.652;8.516;2023-07-24T04:30:38;100428.81;;;19.67;100.00
37878;BME280;23715;53.652;8.516;2023-07-24T04:35:39;100425.50;;;19.72;100.00
37878;BME280;23715;53.652;8.516;2023-07-24T04:40:39;100416.62;;;19.74;100.00
37878;BME280;23715;53.652;8.516;2023-07-24T04:45:39;100400.80;;;19.62;100.00
37878;BME280;23715;53.652;8.516;2023-07-24T04:50:39;100396.08;;;19.67;100.00
37878;BME280;23715;53.652;8.516;2023-07-24T04:55:39;100406.73;;;19.55;100.00
37878;BME280;23715;53.652;8.516;2023-07-24T05:00:40;100399.03;;;19.65;100.00
37878;BME280;23715;53.652;8.516;2023-07-24T05:05:40;100366.73;;;19.93;100.00
37878;BME280;23715;53.652;8.516;2023-07-24T05:10:40;100351.68;;;19.80;100.00
37878;BME280;23715;53.652;8.516;2023-07-24T05:15:41;100328.39;;;19.84;100.00
37878;BME280;23715;53.652;8.516;2023-07-24T05:20:49;100302.30;;;19.68;100.00
37878;BME280;23715;53.652;8.516;2023-07-24T05:25:59;100299.77;;;19.66;100.00
37878;BME280;23715;53.652;8.516;2023-07-24T05:31:03;100297.98;;;19.87;100.00
37878;BME280;23715;53.652;8.516;2023-07-24T05:36:04;100287.56;;;19.80;100.00
37878;BME280;23715;53.652;8.516;2023-07-24T05:41:05;100285.20;;;19.70;100.00
37878;BME280;23715;53.652;8.516;2023-07-24T05:46:05;100302.67;;;19.76;100.00
37878;BME280;23715;53.652;8.516;2023-07-24T05:51:05;100280.64;;;19.84;100.00
37878;BME280;23715;53.652;8.516;2023-07-24T05:56:06;100276.75;;;19.76;100.00
37878;BME280;23715;53.652;8.516;2023-07-24T06:01:06;100277.61;;;19.83;100.00
37878;BME280;23715;53.652;8.516;2023-07-24T06:06:14;100277.01;;;19.94;100.00
37878;BME280;23715;53.652;8.516;2023-07-24T06:11:14;100286.83;;;19.82;100.00
37878;BME280;23715;53.652;8.516;2023-07-24T06:16:14;100267.84;;;19.78;100.00
37878;BME280;23715;53.652;8.516;2023-07-24T06:21:14;100278.12;;;19.76;100.00
37878;BME280;23715;53.652;8.516;2023-07-24T06:26:14;100284.97;;;19.89;100.00
37878;BME280;23715;53.652;8.516;2023-07-24T06:31:14;100281.27;;;19.86;100.00
37878;BME280;23715;53.652;8.516;2023-07-24T06:36:15;100285.87;;;19.72;100.00
37878;BME280;23715;53.652;8.516;2023-07-24T06:41:14;100286.12;;;19.97;100.00
37878;BME280;23715;53.652;8.516;2023-07-24T06:46:19;100284.44;;;19.89;100.00
37878;BME280;23715;53.652;8.516;2023-07-24T06:51:31;100293.58;;;19.99;100.00
37878;BME280;23715;53.652;8.516;2023-07-24T06:56:37;100284.33;;;19.87;100.00
37878;BME280;23715;53.652;8.516;2023-07-24T07:01:38;100283.42;;;20.04;100.00
37878;BME280;23715;53.652;8.516;2023-07-24T07:06:39;100303.03;;;19.97;100.00
37878;BME280;23715;53.652;8.516;2023-07-24T07:11:39;100270.59;;;19.91;100.00
37878;BME280;23715;53.652;8.516;2023-07-24T07:16:39;100293.81;;;19.98;100.00
37878;BME280;23715;53.652;8.516;2023-07-24T07:21:40;100276.09;;;20.11;100.00
37878;BME280;23715;53.652;8.516;2023-07-24T07:26:39;100287.00;;;20.18;100.00
37878;BME280;23715;53.652;8.516;2023-07-24T07:31:44;100285.73;;;20.14;100.00
37878;BME280;23715;53.652;8.516;2023-07-24T07:36:43;100282.80;;;20.02;100.00
37878;BME280;23715;53.652;8.516;2023-07-24T07:41:42;100285.09;;;20.05;100.00
37878;BME280;23715;53.652;8.516;2023-07-24T07:46:43;100281.09;;;20.01;100.00
37878;BME280;23715;53.652;8.516;2023-07-24T07:51:45;100280.28;;;20.14;100.00
37878;BME280;23715;53.652;8.516;2023-07-24T07:56:44;100271.34;;;20.02;100.00
37878;BME280;23715;53.652;8.516;2023-07-24T08:01:44;100269.57;;;20.25;100.00
37878;BME280;23715;53.652;8.516;2023-07-24T08:06:45;100270.21;;;20.21;100.00
37878;BME280;23715;53.652;8.516;2023-07-24T08:11:45;100270.21;;;20.34;100.00
37878;BME280;23715;53.652;8.516;2023-07-24T08:16:50;100260.95;;;20.55;100.00
37878;BME280;23715;53.652;8.516;2023-07-24T08:21:53;100249.61;;;20.32;100.00
37878;BME280;23715;53.652;8.516;2023-07-24T08:26:54;100250.88;;;20.49;100.00
37878;BME280;23715;53.652;8.516;2023-07-24T08:31:54;100246.62;;;20.86;100.00
37878;BME280;23715;53.652;8.516;2023-07-24T08:36:54;100236.96;;;20.91;100.00
37878;BME280;23715;53.652;8.516;2023-07-24T08:41:54;100227.77;;;21.01;100.00
37878;BME280;23715;53.652;8.516;2023-07-24T08:46:54;100223.08;;;21.67;100.00
37878;BME280;23715;53.652;8.516;2023-07-24T08:51:56;100214.23;;;21.80;100.00
37878;BME280;23715;53.652;8.516;2023-07-24T08:56:58;100202.46;;;21.80;100.00
37878;BME280;23715;53.652;8.516;2023-07-24T09:01:58;100181.75;;;22.16;100.00
37878;BME280;23715;53.652;8.516;2023-07-24T09:06:58;100181.75;;;22.16;100.00
37878;BME280;23715;53.652;8.516;2023-07-24T09:11:58;100176.38;;;22.12;100.00
37878;BME280;23715;53.652;8.516;2023-07-24T09:17:07;100163.11;;;22.40;100.00
37878;BME280;23715;53.652;8.516;2023-07-24T09:22:15;100154.12;;;22.43;100.00
37878;BME280;23715;53.652;8.516;2023-07-24T09:27:17;100151.24;;;22.65;100.00
37878;BME280;23715;53.652;8.516;2023-07-24T09:32:23;100156.24;;;22.96;100.00
37878;BME280;23715;53.652;8.516;2023-07-24T09:37:30;100143.91;;;22.77;100.00
37878;BME280;23715;53.652;8.516;2023-07-24T09:42:39;100145.45;;;22.64;100.00
37878;BME280;23715;53.652;8.516;2023-07-24T09:47:42;100146.73;;;22.43;100.00
37878;BME280;23715;53.652;8.516;2023-07-24T09:52:43;100160.73;;;22.19;100.00
37878;BME280;23715;53.652;8.516;2023-07-24T09:57:44;100165.53;;;22.14;100.00
37878;BME280;23715;53.652;8.516;2023-07-24T10:02:45;100172.67;;;22.15;100.00
37878;BME280;23715;53.652;8.516;2023-07-24T10:07:47;100169.71;;;22.17;100.00
37878;BME280;23715;53.652;8.516;2023-07-24T10:12:52;100177.87;;;21.98;100.00
37878;BME280;23715;53.652;8.516;2023-07-24T10:18:01;100176.64;;;21.94;100.00
37878;BME280;23715;53.652;8.516;2023-07-24T10:23:00;100174.03;;;22.15;100.00
37878;BME280;23715;53.652;8.516;2023-07-24T10:28:11;100163.97;;;22.25;100.00
37878;BME280;23715;53.652;8.516;2023-07-24T10:33:17;100150.47;;;22.49;100.00
37878;BME280;23715;53.652;8.516;2023-07-24T10:38:16;100148.39;;;22.44;100.00
37878;BME280;23715;53.652;8.516;2023-07-24T10:43:20;100149.63;;;22.23;100.00
37878;BME280;23715;53.652;8.516;2023-07-24T10:48:23;100167.58;;;22.19;100.00
37878;BME280;23715;53.652;8.516;2023-07-24T10:53:24;100169.06;;;22.65;100.00
37878;BME280;23715;53.652;8.516;2023-07-24T10:58:27;100167.82;;;22.79;100.00
37878;BME280;23715;53.652;8.516;2023-07-24T11:03:28;100149.08;;;22.76;100.00
37878;BME280;23715;53.652;8.516;2023-07-24T11:08:28;100138.05;;;22.83;100.00
37878;BME280;23715;53.652;8.516;2023-07-24T11:13:30;100128.63;;;23.28;100.00
37878;BME280;23715;53.652;8.516;2023-07-24T11:18:43;100121.52;;;23.50;100.00
37878;BME280;23715;53.652;8.516;2023-07-24T11:28:42;100102.91;;;23.73;100.00
37878;BME280;23715;53.652;8.516;2023-07-24T11:33:43;100099.55;;;23.92;100.00
37878;BME280;23715;53.652;8.516;2023-07-24T11:38:47;100103.05;;;23.69;100.00
37878;BME280;23715;53.652;8.516;2023-07-24T11:43:49;100101.27;;;23.75;100.00
37878;BME280;23715;53.652;8.516;2023-07-24T11:48:50;100111.13;;;23.94;100.00
37878;BME280;23715;53.652;8.516;2023-07-24T11:54:03;100111.59;;;23.91;100.00
37878;BME280;23715;53.652;8.516;2023-07-24T11:58:55;100110.40;;;23.87;100.00
37878;BME280;23715;53.652;8.516;2023-07-24T12:03:55;100119.52;;;23.36;100.00
37878;BME280;23715;53.652;8.516;2023-07-24T12:09:00;100127.98;;;23.05;100.00
37878;BME280;23715;53.652;8.516;2023-07-24T12:13:56;100125.00;;;22.97;100.00
37878;BME280;23715;53.652;8.516;2023-07-24T12:18:57;100126.09;;;22.77;100.00
37878;BME280;23715;53.652;8.516;2023-07-24T12:23:56;100118.69;;;22.96;100.00
37878;BME280;23715;53.652;8.516;2023-07-24T12:28:56;100137.06;;;22.59;100.00
37878;BME280;23715;53.652;8.516;2023-07-24T12:34:00;100170.58;;;21.38;100.00
37878;BME280;23715;53.652;8.516;2023-07-24T12:39:00;100180.10;;;21.83;100.00
37878;BME280;23715;53.652;8.516;2023-07-24T12:44:01;100192.63;;;21.97;100.00
37878;BME280;23715;53.652;8.516;2023-07-24T12:49:02;100164.45;;;21.65;100.00
37878;BME280;23715;53.652;8.516;2023-07-24T12:54:02;100156.14;;;22.03;100.00
37878;BME280;23715;53.652;8.516;2023-07-24T12:59:02;100133.60;;;21.92;100.00
37878;BME280;23715;53.652;8.516;2023-07-24T13:04:03;100123.52;;;22.64;100.00
37878;BME280;23715;53.652;8.516;2023-07-24T13:09:03;100111.19;;;22.46;100.00
37878;BME280;23715;53.652;8.516;2023-07-24T13:14:04;100087.00;;;22.33;100.00
37878;BME280;23715;53.652;8.516;2023-07-24T13:19:04;100093.38;;;21.83;100.00
37878;BME280;23715;53.652;8.516;2023-07-24T13:24:05;100110.73;;;21.39;100.00
37878;BME280;23715;53.652;8.516;2023-07-24T13:29:05;100119.39;;;21.68;100.00
37878;BME280;23715;53.652;8.516;2023-07-24T13:34:05;100149.91;;;21.33;100.00
37878;BME280;23715;53.652;8.516;2023-07-24T13:39:05;100212.66;;;20.29;100.00
37878;BME280;23715;53.652;8.516;2023-07-24T13:44:05;100331.86;;;20.33;100.00
37878;BME280;23715;53.652;8.516;2023-07-24T13:49:06;100331.86;;;20.33;100.00
37878;BME280;23715;53.652;8.516;2023-07-24T13:54:08;100335.77;;;20.67;100.00
37878;BME280;23715;53.652;8.516;2023-07-24T13:59:08;100312.51;;;20.94;100.00
37878;BME280;23715;53.652;8.516;2023-07-24T14:04:10;100299.80;;;21.04;100.00
37878;BME280;23715;53.652;8.516;2023-07-24T14:09:11;100313.27;;;20.32;100.00
37878;BME280;23715;53.652;8.516;2023-07-24T14:14:12;100318.63;;;20.50;100.00
37878;BME280;23715;53.652;8.516;2023-07-24T14:19:14;100301.91;;;20.95;100.00
37878;BME280;23715;53.652;8.516;2023-07-24T14:24:13;100277.30;;;20.89;100.00
37878;BME280;23715;53.652;8.516;2023-07-24T14:29:14;100259.50;;;21.09;100.00
37878;BME280;23715;53.652;8.516;2023-07-24T14:34:15;100258.00;;;20.83;100.00
37878;BME280;23715;53.652;8.516;2023-07-24T14:39:19;100266.33;;;20.53;100.00
37878;BME280;23715;53.652;8.516;2023-07-24T14:44:19;100303.84;;;20.61;100.00
37878;BME280;23715;53.652;8.516;2023-07-24T14:49:19;100318.54;;;20.87;100.00
37878;BME280;23715;53.652;8.516;2023-07-24T14:54:22;100285.33;;;20.83;100.00
37878;BME280;23715;53.652;8.516;2023-07-24T14:59:28;100296.23;;;20.97;100.00
37878;BME280;23715;53.652;8.516;2023-07-24T15:04:24;100288.91;;;20.64;100.00
37878;BME280;23715;53.652;8.516;2023-07-24T15:09:28;100306.56;;;20.41;100.00
37878;BME280;23715;53.652;8.516;2023-07-24T15:14:30;100310.44;;;20.36;100.00
37878;BME280;23715;53.652;8.516;2023-07-24T15:19:32;100323.90;;;19.87;100.00
37878;BME280;23715;53.652;8.516;2023-07-24T15:24:36;100359.31;;;20.04;100.00
37878;BME280;23715;53.652;8.516;2023-07-24T15:29:44;100366.33;;;19.96;100.00
37878;BME280;23715;53.652;8.516;2023-07-24T15:34:40;100339.47;;;20.06;100.00
37878;BME280;23715;53.652;8.516;2023-07-24T15:39:40;100341.80;;;20.16;100.00
37878;BME280;23715;53.652;8.516;2023-07-24T15:44:40;100342.33;;;19.54;100.00
37878;BME280;23715;53.652;8.516;2023-07-24T15:49:40;100339.72;;;19.63;100.00
37878;BME280;23715;53.652;8.516;2023-07-24T15:54:41;100299.57;;;19.37;100.00
37878;BME280;23715;53.652;8.516;2023-07-24T15:59:40;100291.78;;;19.89;100.00
37878;BME280;23715;53.652;8.516;2023-07-24T16:04:41;100259.36;;;19.97;100.00
37878;BME280;23715;53.652;8.516;2023-07-24T16:09:41;100247.91;;;19.53;100.00
37878;BME280;23715;53.652;8.516;2023-07-24T16:14:41;100253.56;;;19.76;100.00
37878;BME280;23715;53.652;8.516;2023-07-24T16:19:41;100258.02;;;20.03;100.00
37878;BME280;23715;53.652;8.516;2023-07-24T16:24:41;100252.97;;;20.00;100.00
37878;BME280;23715;53.652;8.516;2023-07-24T16:29:41;100233.23;;;19.98;100.00
37878;BME280;23715;53.652;8.516;2023-07-24T16:34:41;100225.35;;;20.13;100.00
37878;BME280;23715;53.652;8.516;2023-07-24T16:39:43;100200.80;;;20.19;100.00
37878;BME280;23715;53.652;8.516;2023-07-24T16:44:43;100215.17;;;19.97;100.00
37878;BME280;23715;53.652;8.516;2023-07-24T16:49:48;100213.91;;;20.33;100.00
37878;BME280;23715;53.652;8.516;2023-07-24T16:54:50;100208.47;;;20.00;100.00
37878;BME280;23715;53.652;8.516;2023-07-24T16:59:54;100220.72;;;19.80;100.00
37878;BME280;23715;53.652;8.516;2023-07-24T17:05:05;100268.02;;;19.45;100.00
37878;BME280;23715;53.652;8.516;2023-07-24T17:15:33;100331.55;;;19.81;100.00
37878;BME280;23715;53.652;8.516;2023-07-24T17:20:34;100305.98;;;20.08;100.00
37878;BME280;23715;53.652;8.516;2023-07-24T17:25:34;100272.69;;;19.89;100.00
37878;BME280;23715;53.652;8.516;2023-07-24T17:30:35;100249.91;;;19.55;100.00
37878;BME280;23715;53.652;8.516;2023-07-24T17:35:39;100250.20;;;19.49;100.00
37878;BME280;23715;53.652;8.516;2023-07-24T17:40:44;100235.44;;;19.55;100.00
37878;BME280;23715;53.652;8.516;2023-07-24T17:45:46;100227.99;;;18.98;100.00
37878;BME280;23715;53.652;8.516;2023-07-24T17:50:48;100227.20;;;18.76;100.00
37878;BME280;23715;53.652;8.516;2023-07-24T17:55:56;100232.23;;;19.07;100.00
37878;BME280;23715;53.652;8.516;2023-07-24T18:00:53;100221.18;;;18.98;100.00
37878;BME280;23715;53.652;8.516;2023-07-24T18:05:53;100204.83;;;19.22;100.00
37878;BME280;23715;53.652;8.516;2023-07-24T18:10:56;100191.59;;;18.95;100.00
37878;BME280;23715;53.652;8.516;2023-07-24T18:15:56;100202.55;;;18.38;100.00
37878;BME280;23715;53.652;8.516;2023-07-24T18:21:00;100198.05;;;18.06;100.00
37878;BME280;23715;53.652;8.516;2023-07-24T18:26:05;100207.45;;;17.93;100.00
37878;BME280;23715;53.652;8.516;2023-07-24T18:31:07;100217.16;;;18.30;100.00
37878;BME280;23715;53.652;8.516;2023-07-24T18:36:13;100219.02;;;18.12;100.00
37878;BME280;23715;53.652;8.516;2023-07-24T18:41:14;100246.50;;;17.49;100.00
37878;BME280;23715;53.652;8.516;2023-07-24T18:46:17;100271.02;;;17.34;100.00
37878;BME280;23715;53.652;8.516;2023-07-24T18:51:21;100264.02;;;17.10;100.00
37878;BME280;23715;53.652;8.516;2023-07-24T18:56:20;100275.25;;;16.92;100.00
37878;BME280;23715;53.652;8.516;2023-07-24T19:01:22;100286.39;;;16.82;100.00
37878;BME280;23715;53.652;8.516;2023-07-24T19:06:23;100272.66;;;17.50;100.00
37878;BME280;23715;53.652;8.516;2023-07-24T19:11:24;100267.34;;;17.42;100.00
37878;BME280;23715;53.652;8.516;2023-07-24T19:16:24;100271.42;;;17.42;100.00
37878;BME280;23715;53.652;8.516;2023-07-24T19:21:24;100276.64;;;17.32;100.00
37878;BME280;23715;53.652;8.516;2023-07-24T19:26:24;100274.41;;;16.91;100.00
37878;BME280;23715;53.652;8.516;2023-07-24T19:31:25;100286.95;;;17.07;100.00
37878;BME280;23715;53.652;8.516;2023-07-24T19:36:24;100290.34;;;17.09;100.00
37878;BME280;23715;53.652;8.516;2023-07-24T19:41:24;100304.66;;;16.88;100.00
37878;BME280;23715;53.652;8.516;2023-07-24T19:46:25;100322.55;;;16.97;100.00
37878;BME280;23715;53.652;8.516;2023-07-24T19:51:25;100345.37;;;16.92;100.00
37878;BME280;23715;53.652;8.516;2023-07-24T19:56:25;100352.42;;;16.97;100.00
37878;BME280;23715;53.652;8.516;2023-07-24T20:01:26;100338.31;;;17.17;100.00
37878;BME280;23715;53.652;8.516;2023-07-24T20:06:26;100339.56;;;17.25;100.00
37878;BME280;23715;53.652;8.516;2023-07-24T20:11:26;100336.50;;;17.24;100.00
37878;BME280;23715;53.652;8.516;2023-07-24T20:16:28;100346.59;;;17.60;100.00
37878;BME280;23715;53.652;8.516;2023-07-24T20:21:29;100355.87;;;17.40;100.00
37878;BME280;23715;53.652;8.516;2023-07-24T20:26:45;100366.16;;;17.60;100.00
37878;BME280;23715;53.652;8.516;2023-07-24T20:36:55;100377.59;;;17.81;100.00
37878;BME280;23715;53.652;8.516;2023-07-24T20:41:57;100379.61;;;17.72;100.00
37878;BME280;23715;53.652;8.516;2023-07-24T20:46:57;100384.09;;;17.80;100.00
37878;BME280;23715;53.652;8.516;2023-07-24T20:51:58;100385.79;;;17.51;100.00
37878;BME280;23715;53.652;8.516;2023-07-24T20:56:58;100434.56;;;17.04;100.00
37878;BME280;23715;53.652;8.516;2023-07-24T21:01:58;100434.56;;;17.04;100.00
37878;BME280;23715;53.652;8.516;2023-07-24T21:06:58;100456.65;;;17.01;100.00
37878;BME280;23715;53.652;8.516;2023-07-24T21:12:05;100460.42;;;16.95;100.00
37878;BME280;23715;53.652;8.516;2023-07-24T21:17:02;100461.69;;;16.34;100.00
37878;BME280;23715;53.652;8.516;2023-07-24T21:22:03;100450.11;;;16.64;100.00
37878;BME280;23715;53.652;8.516;2023-07-24T21:27:04;100415.75;;;16.75;100.00
37878;BME280;23715;53.652;8.516;2023-07-24T21:32:04;100415.75;;;16.75;100.00
37878;BME280;23715;53.652;8.516;2023-07-24T21:37:05;100417.02;;;17.25;100.00
37878;BME280;23715;53.652;8.516;2023-07-24T21:42:06;100417.70;;;16.89;100.00
37878;BME280;23715;53.652;8.516;2023-07-24T21:47:08;100416.60;;;16.98;100.00
37878;BME280;23715;53.652;8.516;2023-07-24T21:52:09;100414.17;;;16.81;100.00
37878;BME280;23715;53.652;8.516;2023-07-24T21:57:10;100428.31;;;16.76;100.00
37878;BME280;23715;53.652;8.516;2023-07-24T22:02:12;100434.96;;;16.73;100.00
37878;BME280;23715;53.652;8.516;2023-07-24T22:07:12;100435.71;;;16.86;100.00
37878;BME280;23715;53.652;8.516;2023-07-24T22:12:12;100440.27;;;16.90;100.00
37878;BME280;23715;53.652;8.516;2023-07-24T22:17:13;100438.20;;;16.96;100.00
37878;BME280;23715;53.652;8.516;2023-07-24T22:22:13;100434.95;;;17.15;100.00
37878;BME280;23715;53.652;8.516;2023-07-24T22:27:13;100436.67;;;16.93;100.00
37878;BME280;23715;53.652;8.516;2023-07-24T22:32:14;100439.17;;;16.76;100.00
37878;BME280;23715;53.652;8.516;2023-07-24T22:37:13;100439.17;;;16.76;100.00
37878;BME280;23715;53.652;8.516;2023-07-24T22:42:14;100443.91;;;16.82;100.00
37878;BME280;23715;53.652;8.516;2023-07-24T22:47:17;100442.06;;;16.74;100.00
37878;BME280;23715;53.652;8.516;2023-07-24T22:52:17;100451.36;;;16.80;100.00
37878;BME280;23715;53.652;8.516;2023-07-24T22:57:18;100450.80;;;16.66;100.00
37878;BME280;23715;53.652;8.516;2023-07-24T23:02:18;100455.73;;;16.89;100.00
37878;BME280;23715;53.652;8.516;2023-07-24T23:07:18;100453.87;;;16.63;100.00
37878;BME280;23715;53.652;8.516;2023-07-24T23:12:18;100455.78;;;16.31;100.00
37878;BME280;23715;53.652;8.516;2023-07-24T23:17:18;100447.54;;;16.47;100.00
37878;BME280;23715;53.652;8.516;2023-07-24T23:22:19;100453.41;;;16.32;100.00
37878;BME280;23715;53.652;8.516;2023-07-24T23:27:19;100447.46;;;16.05;100.00
37878;BME280;23715;53.652;8.516;2023-07-24T23:32:19;100450.73;;;16.24;100.00
37878;BME280;23715;53.652;8.516;2023-07-24T23:37:19;100454.10;;;16.26;100.00
37878;BME280;23715;53.652;8.516;2023-07-24T23:42:20;100444.99;;;16.69;100.00
37878;BME280;23715;53.652;8.516;2023-07-24T23:47:21;100442.05;;;16.55;100.00
37878;BME280;23715;53.652;8.516;2023-07-24T23:52:22;100443.64;;;16.69;100.00
37878;BME280;23715;53.652;8.516;2023-07-24T23:57:23;100442.80;;;16.91;100.00
